createdAt,value
2017-09-29T00:00:15.614Z,98.14
2017-09-29T00:01:15.606Z,98.52
2017-09-29T00:02:15.602Z,98.52
2017-09-29T00:03:15.591Z,98.43
2017-09-29T00:04:15.589Z,98.24
2017-09-29T00:05:15.582Z,98.52
2017-09-29T00:06:15.582Z,98.52
2017-09-29T00:07:15.568Z,98.52
2017-09-29T00:08:15.563Z,98.52
2017-09-29T00:09:15.563Z,98.43
2017-09-29T00:10:15.558Z,98.62
2017-09-29T00:11:15.548Z,98.33
2017-09-29T00:12:15.545Z,98.52
2017-09-29T00:13:15.537Z,98.43
2017-09-29T00:14:15.530Z,98.52
2017-09-29T00:15:15.526Z,98.71
2017-09-29T00:16:15.524Z,98.33
2017-09-29T00:17:15.516Z,98.24
2017-09-29T00:18:15.509Z,98.24
2017-09-29T00:19:15.503Z,98.14
2017-09-29T00:20:15.500Z,98.24
2017-09-29T00:21:15.493Z,98.14
2017-09-29T00:22:15.489Z,98.52
2017-09-29T00:23:15.481Z,98.05
2017-09-29T00:24:15.475Z,98.14
2017-09-29T00:25:15.469Z,98.14
2017-09-29T00:26:15.464Z,98.14
2017-09-29T00:27:15.467Z,98.43
2017-09-29T00:28:15.136Z,98.24
2017-09-29T00:29:15.448Z,98.14
2017-09-29T00:30:15.450Z,98.33
2017-09-29T00:31:15.438Z,98.52
2017-09-29T00:32:15.111Z,98.14
2017-09-29T00:33:15.427Z,98.33
2017-09-29T00:34:15.418Z,98.52
2017-09-29T00:35:15.416Z,98.24
2017-09-29T00:36:15.407Z,98.05
2017-09-29T00:37:15.403Z,98.52
2017-09-29T00:38:15.078Z,98.33
2017-09-29T00:39:15.394Z,98.24
2017-09-29T00:40:15.383Z,98.33
2017-09-29T00:41:15.377Z,98.14
2017-09-29T00:42:15.373Z,98.28
2017-09-29T00:43:15.369Z,98.33
2017-09-29T00:44:15.364Z,98.33
2017-09-29T00:45:15.359Z,98.33
2017-09-29T00:46:15.353Z,98.28
2017-09-29T00:47:15.345Z,98.47
2017-09-29T00:48:15.339Z,98.57
2017-09-29T00:49:15.364Z,98.28
2017-09-29T00:50:15.330Z,98.38
2017-09-29T00:51:15.324Z,98.38
2017-09-29T00:52:15.316Z,98.28
2017-09-29T00:53:15.313Z,98
2017-09-29T00:54:15.303Z,98.09
2017-09-29T00:55:15.299Z,98.57
2017-09-29T00:56:15.300Z,98
2017-09-29T00:57:15.289Z,98.28
2017-09-29T00:58:15.280Z,98.57
2017-09-29T00:59:14.956Z,98.19
2017-09-29T01:00:15.269Z,98.38
2017-09-29T01:01:15.266Z,98.43
2017-09-29T01:02:15.261Z,98.47
2017-09-29T01:03:15.255Z,97.9
2017-09-29T01:04:15.246Z,98.38
2017-09-29T01:05:15.242Z,98.19
2017-09-29T01:06:14.918Z,98.38
2017-09-29T01:07:15.233Z,98.19
2017-09-29T01:08:14.907Z,98
2017-09-29T01:09:15.219Z,98.47
2017-09-29T01:10:15.213Z,98.47
2017-09-29T01:11:14.889Z,98.47
2017-09-29T01:12:15.203Z,98.47
2017-09-29T01:13:15.194Z,98.38
2017-09-29T01:14:14.870Z,98.66
2017-09-29T01:15:14.866Z,98.38
2017-09-29T01:16:15.180Z,98.47
2017-09-29T01:17:14.853Z,98.38
2017-09-29T01:18:14.848Z,98.47
2017-09-29T01:19:14.842Z,98.38
2017-09-29T01:20:14.838Z,98.09
2017-09-29T01:21:14.830Z,98.47
2017-09-29T01:22:15.144Z,98.38
2017-09-29T01:23:14.820Z,98.38
2017-09-29T01:24:14.814Z,98.38
2017-09-29T01:25:15.136Z,98.28
2017-09-29T01:26:15.123Z,98.19
2017-09-29T01:27:15.115Z,98.09
2017-09-29T01:28:15.138Z,98.38
2017-09-29T01:29:15.105Z,98.28
2017-09-29T01:30:15.099Z,98.28
2017-09-29T01:31:15.092Z,98.09
2017-09-29T01:32:15.085Z,98.47
2017-09-29T01:33:15.081Z,98.19
2017-09-29T01:34:15.077Z,98.57
2017-09-29T01:35:15.068Z,98.38
2017-09-29T01:36:15.064Z,98.47
2017-09-29T01:37:15.094Z,98.09
2017-09-29T01:38:15.049Z,98.19
2017-09-29T01:39:15.049Z,98.09
2017-09-29T01:40:15.042Z,98.28
2017-09-29T01:41:15.034Z,98.09
2017-09-29T01:42:15.028Z,98.57
2017-09-29T01:43:15.027Z,98.28
2017-09-29T01:44:15.020Z,98.38
2017-09-29T01:45:15.014Z,98.95
2017-09-29T01:46:15.008Z,98.57
2017-09-29T01:47:14.998Z,98.57
2017-09-29T01:48:14.992Z,98.28
2017-09-29T01:49:14.987Z,98.57
2017-09-29T01:50:15.007Z,98.66
2017-09-29T01:51:14.977Z,98.47
2017-09-29T01:52:14.971Z,98.95
2017-09-29T01:53:14.965Z,98.86
2017-09-29T01:54:14.960Z,98.47
2017-09-29T01:55:14.952Z,98.95
2017-09-29T01:56:14.944Z,98.47
2017-09-29T01:57:14.619Z,98.09
2017-09-29T01:58:14.615Z,98.66
2017-09-29T01:59:14.941Z,98.28
2017-09-29T02:00:14.922Z,98.66
2017-09-29T02:01:14.917Z,99.05
2017-09-29T02:02:14.913Z,99.05
2017-09-29T02:03:14.906Z,98.66
2017-09-29T02:04:14.897Z,98.66
2017-09-29T02:05:14.894Z,99.05
2017-09-29T02:06:14.900Z,98.76
2017-09-29T02:07:14.885Z,99.24
2017-09-29T02:08:14.874Z,98.86
2017-09-29T02:09:14.872Z,98.66
2017-09-29T02:10:14.869Z,98.66
2017-09-29T02:11:14.858Z,98.66
2017-09-29T02:12:14.853Z,98.66
2017-09-29T02:13:14.846Z,98.95
2017-09-29T02:14:14.844Z,98.76
2017-09-29T02:15:14.840Z,98.86
2017-09-29T02:16:14.828Z,99.05
2017-09-29T02:17:14.824Z,98.95
2017-09-29T02:18:14.828Z,99.15
2017-09-29T02:19:14.812Z,99.24
2017-09-29T02:20:14.807Z,99.05
2017-09-29T02:21:14.801Z,99.15
2017-09-29T02:22:14.793Z,98.86
2017-09-29T02:23:14.786Z,98.95
2017-09-29T02:24:14.780Z,99.05
2017-09-29T02:25:14.775Z,98.76
2017-09-29T02:26:14.767Z,98.66
2017-09-29T02:27:14.762Z,98.66
2017-09-29T02:28:14.754Z,99.15
2017-09-29T02:29:14.753Z,98.19
2017-09-29T02:30:14.746Z,98.14
2017-09-29T02:31:14.738Z,98.38
2017-09-29T02:32:14.735Z,98.19
2017-09-29T02:33:14.728Z,98.28
2017-09-29T02:34:14.721Z,98.19
2017-09-29T02:35:14.716Z,98.14
2017-09-29T02:36:14.710Z,98.28
2017-09-29T02:37:14.705Z,98.14
2017-09-29T02:38:14.696Z,98.14
2017-09-29T02:39:14.692Z,98.24
2017-09-29T02:40:14.366Z,98.71
2017-09-29T02:41:14.710Z,98.14
2017-09-29T02:42:14.353Z,98.52
2017-09-29T02:43:14.668Z,97.95
2017-09-29T02:44:14.662Z,98.14
2017-09-29T02:45:14.658Z,98.24
2017-09-29T02:46:14.652Z,98.43
2017-09-29T02:47:14.645Z,98.33
2017-09-29T02:48:14.317Z,98.33
2017-09-29T02:49:14.629Z,98.14
2017-09-29T02:50:14.628Z,98.71
2017-09-29T02:51:14.622Z,99.1
2017-09-29T02:52:14.619Z,98.43
2017-09-29T02:53:14.608Z,98.33
2017-09-29T02:54:14.603Z,98.14
2017-09-29T02:55:14.595Z,98.14
2017-09-29T02:56:14.589Z,99.19
2017-09-29T02:57:14.583Z,99.1
2017-09-29T02:58:14.580Z,99.1
2017-09-29T02:59:14.250Z,99.1
2017-09-29T03:00:14.564Z,99.19
2017-09-29T03:01:14.559Z,99.1
2017-09-29T03:02:14.551Z,99
2017-09-29T03:03:14.546Z,99
2017-09-29T03:04:14.542Z,99.19
2017-09-29T03:05:14.214Z,99
2017-09-29T03:06:14.536Z,98.71
2017-09-29T03:07:14.201Z,99
2017-09-29T03:08:14.516Z,98.81
2017-09-29T03:09:14.188Z,99.1
2017-09-29T03:10:14.504Z,99.1
2017-09-29T03:11:14.502Z,98.9
2017-09-29T03:12:14.491Z,98.61
2017-09-29T03:13:14.482Z,98.9
2017-09-29T03:14:14.480Z,98.75
2017-09-29T03:15:14.470Z,98.81
2017-09-29T03:16:14.462Z,98.75
2017-09-29T03:17:14.456Z,99
2017-09-29T03:18:14.450Z,98.9
2017-09-29T03:19:14.447Z,98.81
2017-09-29T03:20:14.119Z,98.75
2017-09-29T03:21:14.430Z,98.85
2017-09-29T03:22:14.424Z,98.81
2017-09-29T03:23:14.421Z,98.66
2017-09-29T03:24:14.615Z,98.75
2017-09-29T03:25:14.408Z,98.95
2017-09-29T03:26:14.406Z,98.57
2017-09-29T03:27:14.397Z,98.81
2017-09-29T03:28:14.388Z,98.95
2017-09-29T03:29:14.381Z,99.24
2017-09-29T03:30:14.378Z,99.14
2017-09-29T03:31:14.373Z,99.04
2017-09-29T03:32:14.365Z,99.04
2017-09-29T03:33:14.358Z,99.04
2017-09-29T03:34:14.353Z,99.04
2017-09-29T03:35:14.348Z,99.04
2017-09-29T03:36:14.336Z,98.95
2017-09-29T03:37:14.330Z,98.95
2017-09-29T03:38:14.323Z,98.95
2017-09-29T03:39:14.321Z,99.04
2017-09-29T03:40:14.313Z,99.24
2017-09-29T03:41:14.306Z,99.04
2017-09-29T03:42:14.301Z,99.04
2017-09-29T03:43:14.295Z,99.24
2017-09-29T03:44:14.287Z,99.04
2017-09-29T03:45:14.282Z,99.04
2017-09-29T03:46:14.274Z,99.04
2017-09-29T03:47:14.274Z,99.04
2017-09-29T03:48:14.262Z,99.33
2017-09-29T03:49:14.254Z,98.66
2017-09-29T03:50:14.247Z,98.66
2017-09-29T03:51:14.241Z,98.75
2017-09-29T03:52:13.917Z,98.75
2017-09-29T03:53:14.232Z,98.75
2017-09-29T03:54:13.906Z,99.04
2017-09-29T03:55:14.418Z,98.66
2017-09-29T03:56:14.216Z,98.95
2017-09-29T03:57:14.209Z,98.66
2017-09-29T03:58:14.195Z,98.66
2017-09-29T03:59:13.873Z,98.75
2017-09-29T04:00:14.189Z,98.85
2017-09-29T04:01:13.858Z,98.85
2017-09-29T04:02:13.854Z,98.95
2017-09-29T04:03:14.165Z,98.85
2017-09-29T04:04:13.842Z,98.85
2017-09-29T04:05:13.832Z,98.85
2017-09-29T04:06:13.825Z,98.95
2017-09-29T04:07:13.821Z,98.57
2017-09-29T04:08:13.812Z,98.95
2017-09-29T04:09:13.807Z,98.66
2017-09-29T04:10:13.803Z,99.24
2017-09-29T04:11:13.794Z,98.85
2017-09-29T04:12:14.105Z,98.85
2017-09-29T04:13:14.104Z,98.66
2017-09-29T04:14:14.098Z,98.66
2017-09-29T04:15:14.095Z,98.75
2017-09-29T04:16:14.082Z,98.85
2017-09-29T04:17:14.076Z,99.14
2017-09-29T04:18:14.071Z,98.66
2017-09-29T04:19:13.744Z,98.57
2017-09-29T04:20:14.065Z,99.14
2017-09-29T04:21:14.052Z,98.85
2017-09-29T04:22:13.727Z,99.14
2017-09-29T04:23:14.043Z,98.85
2017-09-29T04:24:14.031Z,99.14
2017-09-29T04:25:14.023Z,99.24
2017-09-29T04:26:13.695Z,99.24
2017-09-29T04:27:14.014Z,99.24
2017-09-29T04:28:14.005Z,99.24
2017-09-29T04:29:13.998Z,99.19
2017-09-29T04:30:13.990Z,99.14
2017-09-29T04:31:13.983Z,98.95
2017-09-29T04:32:13.993Z,99.24
2017-09-29T04:33:13.653Z,99.14
2017-09-29T04:34:13.967Z,99.04
2017-09-29T04:35:13.966Z,98.99
2017-09-29T04:36:13.963Z,98.85
2017-09-29T04:37:13.946Z,99.14
2017-09-29T04:38:13.617Z,99.57
2017-09-29T04:39:13.933Z,99.71
2017-09-29T04:40:13.606Z,99.66
2017-09-29T04:41:13.921Z,99.66
2017-09-29T04:42:13.917Z,99.66
2017-09-29T04:43:13.906Z,99.48
2017-09-29T04:44:13.579Z,99.66
2017-09-29T04:45:13.894Z,99.57
2017-09-29T04:46:13.886Z,99.38
2017-09-29T04:47:13.880Z,99.38
2017-09-29T04:48:13.553Z,99.48
2017-09-29T04:49:13.547Z,99.38
2017-09-29T04:50:13.863Z,99.38
2017-09-29T04:51:13.534Z,99.38
2017-09-29T04:52:13.528Z,99.38
2017-09-29T04:53:13.846Z,99.48
2017-09-29T04:54:13.831Z,99.38
2017-09-29T04:55:13.829Z,99.28
2017-09-29T04:56:13.822Z,99.57
2017-09-29T04:57:13.818Z,99.38
2017-09-29T04:58:13.808Z,99.38
2017-09-29T04:59:13.801Z,99.28
2017-09-29T05:00:13.792Z,99.38
2017-09-29T05:01:13.786Z,99.76
2017-09-29T05:02:13.787Z,99.85
2017-09-29T05:03:13.776Z,99.85
2017-09-29T05:04:13.766Z,99.48
2017-09-29T05:05:13.760Z,99.57
2017-09-29T05:06:13.751Z,99.38
2017-09-29T05:07:13.747Z,99.48
2017-09-29T05:08:13.740Z,99.57
2017-09-29T05:09:13.734Z,99.48
2017-09-29T05:10:13.727Z,99.66
2017-09-29T05:11:13.721Z,99.48
2017-09-29T05:12:13.716Z,99.19
2017-09-29T05:13:13.708Z,99.57
2017-09-29T05:14:13.696Z,99.23
2017-09-29T05:15:13.693Z,99.33
2017-09-29T05:16:13.685Z,99.9
2017-09-29T05:17:13.358Z,99.52
2017-09-29T05:18:13.674Z,99.62
2017-09-29T05:19:13.664Z,99.62
2017-09-29T05:20:13.339Z,99.8
2017-09-29T05:21:13.651Z,99.99
2017-09-29T05:22:13.321Z,99.99
2017-09-29T05:23:13.636Z,99.99
2017-09-29T05:24:13.630Z,99.99
2017-09-29T05:25:13.623Z,99.99
2017-09-29T05:26:13.619Z,99.99
2017-09-29T05:27:13.609Z,99.99
2017-09-29T05:28:13.602Z,99.99
2017-09-29T05:29:13.275Z,99.99
2017-09-29T05:30:13.589Z,99.99
2017-09-29T05:31:13.580Z,99.99
2017-09-29T05:32:13.574Z,99.99
2017-09-29T05:33:13.568Z,99.99
2017-09-29T05:34:13.563Z,99.99
2017-09-29T05:35:13.555Z,99.99
2017-09-29T05:36:13.545Z,99.33
2017-09-29T05:37:13.542Z,99.19
2017-09-29T05:38:13.538Z,99.57
2017-09-29T05:39:13.528Z,99.57
2017-09-29T05:40:13.519Z,99.52
2017-09-29T05:41:13.514Z,99.52
2017-09-29T05:42:13.508Z,99.48
2017-09-29T05:43:13.502Z,99.57
2017-09-29T05:44:13.496Z,99.48
2017-09-29T05:45:13.489Z,99.48
2017-09-29T05:46:13.483Z,99.66
2017-09-29T05:47:13.474Z,99.66
2017-09-29T05:48:13.469Z,99.76
2017-09-29T05:49:13.462Z,99.57
2017-09-29T05:50:13.457Z,99.48
2017-09-29T05:51:13.450Z,99.28
2017-09-29T05:52:13.444Z,99.76
2017-09-29T05:53:13.115Z,99.66
2017-09-29T05:54:13.431Z,99.28
2017-09-29T05:55:13.430Z,98.8
2017-09-29T05:56:13.418Z,99.04
2017-09-29T05:57:13.412Z,99.14
2017-09-29T05:58:13.406Z,99.04
2017-09-29T05:59:13.403Z,98.28
2017-09-29T06:00:13.389Z,98.52
2017-09-29T06:01:13.386Z,98.04
2017-09-29T06:02:13.381Z,97.95
2017-09-29T06:03:13.380Z,98.33
2017-09-29T06:04:13.049Z,97.42
2017-09-29T06:05:13.044Z,97.42
2017-09-29T06:06:13.365Z,97.52
2017-09-29T06:07:13.394Z,97.61
2017-09-29T06:08:13.029Z,97.18
2017-09-29T06:09:13.341Z,96.61
2017-09-29T06:10:13.334Z,97.09
2017-09-29T06:11:13.333Z,96.66
2017-09-29T06:12:13.007Z,96.37
2017-09-29T06:13:13.322Z,96.37
2017-09-29T06:14:13.000Z,95.94
2017-09-29T06:15:13.314Z,96.22
2017-09-29T06:16:13.309Z,96.22
2017-09-29T06:17:13.303Z,96.32
2017-09-29T06:18:13.298Z,96.18
2017-09-29T06:19:13.298Z,95.7
2017-09-29T06:20:13.293Z,95.21
2017-09-29T06:21:13.289Z,95.36
2017-09-29T06:22:13.284Z,94.88
2017-09-29T06:23:13.283Z,95.07
2017-09-29T06:24:13.285Z,94.49
2017-09-29T06:25:13.274Z,94.49
2017-09-29T06:26:13.275Z,94.35
2017-09-29T06:27:13.268Z,94.07
2017-09-29T06:28:13.268Z,94.16
2017-09-29T06:29:13.269Z,93.97
2017-09-29T06:30:13.257Z,93.97
2017-09-29T06:31:13.256Z,93.97
2017-09-29T06:32:13.251Z,94.31
2017-09-29T06:33:13.259Z,94.83
2017-09-29T06:34:13.250Z,94.21
2017-09-29T06:35:13.247Z,94.16
2017-09-29T06:36:13.243Z,93.73
2017-09-29T06:37:13.239Z,94.4
2017-09-29T06:38:13.242Z,94.49
2017-09-29T06:39:13.236Z,94.31
2017-09-29T06:40:12.911Z,94.12
2017-09-29T06:41:13.227Z,93.25
2017-09-29T06:42:13.225Z,93.54
2017-09-29T06:43:13.222Z,93.73
2017-09-29T06:44:13.221Z,94.21
2017-09-29T06:45:13.215Z,94.26
2017-09-29T06:46:12.895Z,94.45
2017-09-29T06:47:12.891Z,93.68
2017-09-29T06:48:13.209Z,93.68
2017-09-29T06:49:13.206Z,93.1
2017-09-29T06:50:13.201Z,92.91
2017-09-29T06:51:13.203Z,93.01
2017-09-29T06:52:13.200Z,92.82
2017-09-29T06:53:13.197Z,93.01
2017-09-29T06:54:13.198Z,92.57
2017-09-29T06:55:13.193Z,93.01
2017-09-29T06:56:13.190Z,93.87
2017-09-29T06:57:13.199Z,93.1
2017-09-29T06:58:13.188Z,93.05
2017-09-29T06:59:13.186Z,91.86
2017-09-29T07:00:13.184Z,92.72
2017-09-29T07:01:13.181Z,92.24
2017-09-29T07:02:13.181Z,93.2
2017-09-29T07:03:13.176Z,93.87
2017-09-29T07:04:12.854Z,94.16
2017-09-29T07:05:13.171Z,93.92
2017-09-29T07:06:13.166Z,93.87
2017-09-29T07:07:13.164Z,93.92
2017-09-29T07:08:13.166Z,93.82
2017-09-29T07:09:13.162Z,93.92
2017-09-29T07:10:13.199Z,93.92
2017-09-29T07:11:13.158Z,94.59
2017-09-29T07:12:13.155Z,93.82
2017-09-29T07:13:13.151Z,94.02
2017-09-29T07:14:13.151Z,94.4
2017-09-29T07:15:12.825Z,94.49
2017-09-29T07:16:13.141Z,94.4
2017-09-29T07:17:13.138Z,94.49
2017-09-29T07:18:13.133Z,94.21
2017-09-29T07:19:13.130Z,94.49
2017-09-29T07:20:13.127Z,94.59
2017-09-29T07:21:13.125Z,94.49
2017-09-29T07:22:13.123Z,94.59
2017-09-29T07:23:12.798Z,93.88
2017-09-29T07:24:12.796Z,94.26
2017-09-29T07:25:13.114Z,94.17
2017-09-29T07:26:12.788Z,94.07
2017-09-29T07:27:13.113Z,93.97
2017-09-29T07:28:13.103Z,94.17
2017-09-29T07:29:13.099Z,94.45
2017-09-29T07:30:13.099Z,94.64
2017-09-29T07:31:13.101Z,94.88
2017-09-29T07:32:13.091Z,94.4
2017-09-29T07:33:13.090Z,93.63
2017-09-29T07:34:13.084Z,93.15
2017-09-29T07:35:13.083Z,93.25
2017-09-29T07:36:13.081Z,93.1
2017-09-29T07:37:13.076Z,93.01
2017-09-29T07:38:13.075Z,92.91
2017-09-29T07:39:13.077Z,91.76
2017-09-29T07:40:13.070Z,92.14
2017-09-29T07:41:13.073Z,92.63
2017-09-29T07:42:13.071Z,91.28
2017-09-29T07:43:13.068Z,91.33
2017-09-29T07:44:13.064Z,91.9
2017-09-29T07:45:13.064Z,92.19
2017-09-29T07:46:13.066Z,91.33
2017-09-29T07:47:13.060Z,91.9
2017-09-29T07:48:13.071Z,91.04
2017-09-29T07:49:13.061Z,91.23
2017-09-29T07:50:13.062Z,91.13
2017-09-29T07:51:13.058Z,91.04
2017-09-29T07:52:13.464Z,91.23
2017-09-29T07:53:12.736Z,91.13
2017-09-29T07:54:13.054Z,91.9
2017-09-29T07:55:13.061Z,91.23
2017-09-29T07:56:13.055Z,91.81
2017-09-29T07:57:13.051Z,91.42
2017-09-29T07:58:13.051Z,90.66
2017-09-29T07:59:13.050Z,91.52
2017-09-29T08:00:12.726Z,92.1
2017-09-29T08:01:13.047Z,92
2017-09-29T08:02:12.718Z,91.71
2017-09-29T08:03:13.259Z,91.71
2017-09-29T08:04:13.038Z,91.71
2017-09-29T08:05:13.035Z,91.61
2017-09-29T08:06:13.032Z,91.81
2017-09-29T08:07:12.711Z,92.19
2017-09-29T08:08:13.029Z,91.61
2017-09-29T08:09:13.022Z,92.29
2017-09-29T08:10:13.021Z,91.71
2017-09-29T08:11:13.020Z,91.9
2017-09-29T08:12:13.014Z,91.61
2017-09-29T08:13:13.012Z,92.1
2017-09-29T08:14:13.008Z,92.19
2017-09-29T08:15:13.008Z,91.71
2017-09-29T08:16:13.003Z,92.1
2017-09-29T08:17:13.006Z,91.04
2017-09-29T08:18:13.000Z,91.23
2017-09-29T08:19:12.682Z,91.81
2017-09-29T08:20:12.990Z,91.81
2017-09-29T08:21:12.987Z,91.81
2017-09-29T08:22:12.988Z,91.42
2017-09-29T08:23:12.667Z,91.13
2017-09-29T08:24:12.980Z,90.66
2017-09-29T08:25:12.983Z,90.66
2017-09-29T08:26:12.977Z,89.4
2017-09-29T08:27:12.972Z,90.56
2017-09-29T08:28:12.969Z,91.33
2017-09-29T08:29:12.961Z,91.13
2017-09-29T08:30:12.963Z,90.94
2017-09-29T08:31:12.956Z,90.37
2017-09-29T08:32:12.637Z,89.69
2017-09-29T08:33:12.951Z,89.98
2017-09-29T08:34:12.855Z,90.84
2017-09-29T08:35:13.146Z,90.37
2017-09-29T08:36:12.940Z,90.17
2017-09-29T08:37:12.953Z,90.37
2017-09-29T08:38:12.933Z,90.56
2017-09-29T08:39:12.929Z,89.4
2017-09-29T08:40:12.925Z,89.98
2017-09-29T08:41:12.924Z,89.89
2017-09-29T08:42:12.920Z,90.27
2017-09-29T08:43:12.919Z,90.17
2017-09-29T08:44:12.919Z,90.17
2017-09-29T08:45:12.591Z,90.08
2017-09-29T08:46:12.909Z,90.27
2017-09-29T08:47:12.904Z,90.17
2017-09-29T08:48:12.583Z,89.98
2017-09-29T08:49:12.897Z,90.17
2017-09-29T08:50:12.890Z,89.5
2017-09-29T08:51:12.892Z,89.69
2017-09-29T08:52:12.892Z,89.4
2017-09-29T08:53:12.567Z,90.37
2017-09-29T08:54:12.878Z,90.17
2017-09-29T08:55:12.882Z,90.66
2017-09-29T08:56:12.874Z,90.27
2017-09-29T08:57:12.872Z,89.6
2017-09-29T08:58:12.868Z,89.31
2017-09-29T08:59:12.862Z,89.69
2017-09-29T09:00:12.858Z,89.6
2017-09-29T09:01:12.855Z,89.5
2017-09-29T09:02:12.856Z,89.6
2017-09-29T09:03:12.850Z,89.69
2017-09-29T09:04:12.845Z,88.83
2017-09-29T09:05:12.521Z,88.73
2017-09-29T09:06:12.841Z,89.02
2017-09-29T09:07:12.833Z,88.93
2017-09-29T09:08:12.829Z,89.4
2017-09-29T09:09:12.830Z,89.31
2017-09-29T09:10:12.822Z,88.93
2017-09-29T09:11:12.821Z,89.02
2017-09-29T09:12:12.815Z,89.31
2017-09-29T09:13:12.815Z,88.93
2017-09-29T09:14:12.814Z,89.12
2017-09-29T09:15:12.809Z,89.4
2017-09-29T09:16:12.806Z,89.5
2017-09-29T09:17:12.801Z,89.98
2017-09-29T09:18:12.798Z,89.45
2017-09-29T09:19:12.795Z,89.16
2017-09-29T09:20:12.793Z,89.54
2017-09-29T09:21:12.789Z,89.16
2017-09-29T09:22:12.464Z,88.78
2017-09-29T09:23:12.471Z,88.01
2017-09-29T09:24:12.778Z,88.78
2017-09-29T09:25:12.773Z,88.2
2017-09-29T09:26:12.448Z,88.2
2017-09-29T09:27:12.767Z,88.39
2017-09-29T09:28:12.964Z,88.49
2017-09-29T09:29:12.441Z,89.45
2017-09-29T09:30:12.442Z,88.78
2017-09-29T09:31:12.754Z,88.87
2017-09-29T09:32:12.753Z,88.01
2017-09-29T09:33:12.747Z,88.97
2017-09-29T09:34:12.744Z,88.78
2017-09-29T09:35:12.742Z,88.87
2017-09-29T09:36:12.417Z,88.78
2017-09-29T09:37:12.734Z,88.59
2017-09-29T09:38:12.732Z,88.39
2017-09-29T09:39:12.728Z,87.62
2017-09-29T09:40:12.729Z,88.01
2017-09-29T09:41:12.728Z,88.3
2017-09-29T09:42:12.719Z,88.1
2017-09-29T09:43:12.715Z,88.2
2017-09-29T09:44:12.715Z,87.92
2017-09-29T09:45:12.707Z,88.2
2017-09-29T09:46:12.708Z,88.78
2017-09-29T09:47:12.703Z,88.49
2017-09-29T09:48:12.701Z,88.44
2017-09-29T09:49:12.375Z,88.44
2017-09-29T09:50:12.695Z,88.15
2017-09-29T09:51:12.689Z,88.24
2017-09-29T09:52:12.367Z,88.01
2017-09-29T09:53:12.362Z,88.68
2017-09-29T09:54:12.681Z,88.92
2017-09-29T09:55:12.677Z,88.78
2017-09-29T09:56:12.676Z,88.01
2017-09-29T09:57:12.669Z,88.15
2017-09-29T09:58:12.346Z,88.92
2017-09-29T09:59:12.664Z,88.68
2017-09-29T10:00:12.667Z,88.73
2017-09-29T10:01:12.657Z,88.73
2017-09-29T10:02:12.333Z,88.82
2017-09-29T10:03:12.650Z,89.4
2017-09-29T10:04:12.327Z,88.82
2017-09-29T10:05:12.325Z,88.06
2017-09-29T10:06:12.641Z,87.86
2017-09-29T10:07:12.641Z,88.24
2017-09-29T10:08:12.634Z,88.34
2017-09-29T10:09:12.633Z,88.06
2017-09-29T10:10:12.306Z,88.34
2017-09-29T10:11:12.624Z,87.96
2017-09-29T10:12:12.624Z,88.53
2017-09-29T10:13:12.619Z,87.57
2017-09-29T10:14:12.613Z,87.76
2017-09-29T10:15:12.294Z,87.96
2017-09-29T10:16:12.611Z,88.15
2017-09-29T10:17:12.605Z,88.34
2017-09-29T10:18:12.603Z,88.06
2017-09-29T10:19:12.598Z,87.96
2017-09-29T10:20:12.596Z,88.06
2017-09-29T10:21:12.593Z,87.96
2017-09-29T10:22:12.589Z,87.96
2017-09-29T10:23:12.586Z,88.44
2017-09-29T10:24:12.586Z,88.15
2017-09-29T10:25:12.580Z,87.76
2017-09-29T10:26:12.578Z,87.09
2017-09-29T10:27:12.574Z,87.29
2017-09-29T10:28:12.568Z,86.42
2017-09-29T10:29:12.568Z,86.42
2017-09-29T10:30:12.567Z,85.75
2017-09-29T10:31:12.243Z,86.32
2017-09-29T10:32:12.560Z,86.04
2017-09-29T10:33:12.558Z,86.8
2017-09-29T10:34:12.556Z,86.32
2017-09-29T10:35:12.550Z,86.52
2017-09-29T10:36:12.548Z,86.32
2017-09-29T10:37:12.224Z,86.65
2017-09-29T10:38:12.561Z,86.85
2017-09-29T10:39:12.538Z,86.75
2017-09-29T10:40:12.533Z,86.08
2017-09-29T10:41:12.531Z,86.94
2017-09-29T10:42:12.529Z,86.85
2017-09-29T10:43:12.525Z,86.56
2017-09-29T10:44:12.525Z,86.56
2017-09-29T10:45:12.523Z,86.56
2017-09-29T10:46:12.517Z,86.27
2017-09-29T10:47:12.514Z,86.27
2017-09-29T10:48:12.511Z,86.27
2017-09-29T10:49:12.505Z,86.36
2017-09-29T10:50:12.508Z,86.36
2017-09-29T10:51:12.499Z,86.69
2017-09-29T10:52:12.498Z,85.98
2017-09-29T10:53:12.493Z,86.31
2017-09-29T10:54:12.493Z,86.46
2017-09-29T10:55:12.494Z,86.18
2017-09-29T10:56:12.484Z,86.12
2017-09-29T10:57:12.480Z,86.27
2017-09-29T10:58:12.477Z,86.56
2017-09-29T10:59:12.479Z,86.69
2017-09-29T11:00:12.474Z,86.51
2017-09-29T11:01:12.471Z,86.31
2017-09-29T11:02:12.468Z,86.36
2017-09-29T11:03:12.466Z,86.31
2017-09-29T11:04:12.464Z,86.22
2017-09-29T11:05:12.459Z,86.51
2017-09-29T11:06:12.459Z,86.89
2017-09-29T11:07:12.455Z,86.22
2017-09-29T11:08:12.453Z,86.51
2017-09-29T11:09:12.445Z,86.89
2017-09-29T11:10:12.443Z,86.51
2017-09-29T11:11:12.743Z,86.6
2017-09-29T11:12:12.439Z,86.31
2017-09-29T11:13:12.437Z,86.6
2017-09-29T11:14:12.116Z,86.51
2017-09-29T11:15:12.432Z,85.83
2017-09-29T11:16:12.428Z,86.31
2017-09-29T11:17:12.424Z,85.93
2017-09-29T11:18:12.808Z,85.97
2017-09-29T11:19:12.423Z,85.54
2017-09-29T11:20:12.099Z,85.68
2017-09-29T11:21:12.416Z,85.83
2017-09-29T11:22:12.415Z,85.83
2017-09-29T11:23:12.409Z,85.58
2017-09-29T11:24:12.409Z,85.68
2017-09-29T11:25:12.405Z,84.62
2017-09-29T11:26:12.402Z,84.53
2017-09-29T11:27:12.404Z,84.43
2017-09-29T11:28:12.395Z,84.43
2017-09-29T11:29:12.392Z,84.33
2017-09-29T11:30:12.390Z,83.95
2017-09-29T11:31:12.390Z,84.43
2017-09-29T11:32:12.385Z,84.43
2017-09-29T11:33:12.385Z,83.95
2017-09-29T11:34:12.384Z,83.95
2017-09-29T11:35:12.377Z,82.7
2017-09-29T11:36:12.379Z,83.66
2017-09-29T11:37:12.373Z,83.47
2017-09-29T11:38:12.372Z,82.98
2017-09-29T11:39:12.368Z,82.89
2017-09-29T11:40:12.369Z,82.7
2017-09-29T11:41:12.361Z,82.98
2017-09-29T11:42:12.359Z,83.28
2017-09-29T11:43:12.355Z,82.79
2017-09-29T11:44:12.356Z,82.31
2017-09-29T11:45:12.361Z,82.79
2017-09-29T11:46:12.348Z,82.89
2017-09-29T11:47:12.347Z,82.7
2017-09-29T11:48:12.345Z,83.08
2017-09-29T11:49:12.343Z,82.12
2017-09-29T11:50:12.344Z,82.89
2017-09-29T11:51:12.336Z,82.64
2017-09-29T11:52:12.333Z,82.06
2017-09-29T11:53:12.333Z,81.48
2017-09-29T11:54:12.330Z,81.87
2017-09-29T11:55:12.012Z,82.35
2017-09-29T11:56:12.326Z,82.35
2017-09-29T11:57:12.324Z,82.83
2017-09-29T11:58:12.318Z,82.74
2017-09-29T11:59:12.319Z,83.03
2017-09-29T12:00:12.320Z,82.83
2017-09-29T12:01:12.310Z,82.64
2017-09-29T12:02:12.312Z,83.12
2017-09-29T12:03:12.615Z,83.03
2017-09-29T12:04:12.303Z,83.03
2017-09-29T12:05:12.302Z,82.54
2017-09-29T12:06:12.302Z,82.35
2017-09-29T12:07:12.295Z,82.83
2017-09-29T12:08:12.296Z,83.41
2017-09-29T12:09:12.293Z,83.03
2017-09-29T12:10:11.971Z,83.51
2017-09-29T12:11:12.288Z,83.03
2017-09-29T12:12:11.965Z,82.64
2017-09-29T12:13:11.965Z,83.03
2017-09-29T12:14:12.289Z,82.93
2017-09-29T12:15:12.290Z,83.12
2017-09-29T12:16:12.277Z,82.45
2017-09-29T12:17:11.953Z,82.93
2017-09-29T12:18:12.278Z,82.64
2017-09-29T12:19:12.267Z,82.26
2017-09-29T12:20:12.265Z,82.26
2017-09-29T12:21:12.264Z,82.74
2017-09-29T12:22:12.268Z,82.64
2017-09-29T12:23:12.257Z,82.64
2017-09-29T12:24:12.255Z,82.74
2017-09-29T12:25:12.257Z,83.12
2017-09-29T12:26:12.248Z,83.03
2017-09-29T12:27:12.249Z,82.35
2017-09-29T12:28:12.252Z,82.93
2017-09-29T12:29:12.245Z,82.54
2017-09-29T12:30:12.243Z,82.64
2017-09-29T12:31:12.240Z,83.12
2017-09-29T12:32:11.915Z,82.45
2017-09-29T12:33:12.237Z,82.35
2017-09-29T12:34:12.229Z,81.77
2017-09-29T12:35:12.230Z,82.45
2017-09-29T12:36:12.229Z,81.77
2017-09-29T12:37:12.222Z,82.54
2017-09-29T12:38:12.223Z,82.16
2017-09-29T12:39:12.219Z,81.96
2017-09-29T12:40:12.216Z,82.64
2017-09-29T12:41:12.214Z,82.45
2017-09-29T12:42:12.209Z,82.35
2017-09-29T12:43:12.210Z,81.96
2017-09-29T12:44:12.208Z,82.54
2017-09-29T12:46:12.199Z,82.26
2017-09-29T12:47:11.879Z,82.16
2017-09-29T12:48:12.197Z,82.64
2017-09-29T12:49:11.874Z,82.64
2017-09-29T12:50:12.192Z,82.06
2017-09-29T12:51:11.869Z,82.16
2017-09-29T12:52:12.187Z,81.58
2017-09-29T12:53:12.182Z,81.96
2017-09-29T12:54:11.859Z,82.16
2017-09-29T12:55:12.183Z,82.16
2017-09-29T12:56:12.176Z,82.54